Time;durP1;ratioP1;P1;durP2;ratioP2;P2;SDS_P1;SDS_P2;PMS_P1;PMS_P2;Temp;Humidity;BMP_temperature;BMP_pressure;BME280_temperature;BME280_humidity;BME280_pressure;Samples;Min_cycle;Max_cycle;Signal;HPM_P1;HPM_P2
2023/11/26 00:00:47;;;;;;;2.10;1.83;;;4.20;98.00;;;;;;4953564;28;20459;-69
2023/11/26 00:03:14;;;;;;;2.60;1.70;;;4.10;98.00;;;;;;4953631;28;20545;-69
2023/11/26 00:05:41;;;;;;;3.07;1.90;;;4.10;98.00;;;;;;4953441;28;20468;-69
2023/11/26 00:08:10;;;;;;;3.50;2.00;;;4.10;98.00;;;;;;4952272;29;20973;-69
2023/11/26 00:10:37;;;;;;;3.00;2.27;;;4.10;98.00;;;;;;4953645;28;20463;-69
2023/11/26 00:13:04;;;;;;;6.67;2.03;;;4.10;98.00;;;;;;4952435;29;20454;-69
2023/11/26 00:15:32;;;;;;;3.60;2.10;;;4.10;98.00;;;;;;4953671;28;20462;-69
2023/11/26 00:17:59;;;;;;;4.13;2.17;;;4.10;98.00;;;;;;4957393;28;20458;-69
2023/11/26 00:20:27;;;;;;;2.83;1.80;;;4.10;98.00;;;;;;4957200;28;20491;-69
2023/11/26 00:22:54;;;;;;;3.30;2.07;;;4.20;98.00;;;;;;4955948;29;20486;-69
2023/11/26 00:25:22;;;;;;;3.00;2.20;;;4.10;98.00;;;;;;4957116;28;20594;-69
2023/11/26 00:27:49;;;;;;;3.87;2.33;;;4.10;98.00;;;;;;4957189;28;20461;-69
2023/11/26 00:30:16;;;;;;;4.10;2.13;;;4.20;98.00;;;;;;4957122;28;20890;-69
2023/11/26 00:32:43;;;;;;;2.20;1.60;;;4.20;98.00;;;;;;4955930;29;20875;-69
2023/11/26 00:35:12;;;;;;;3.10;2.17;;;4.20;98.00;;;;;;4957000;28;20450;-69
2023/11/26 00:37:39;;;;;;;4.57;2.00;;;4.30;98.00;;;;;;4957051;28;20517;-69
2023/11/26 00:40:08;;;;;;;3.13;1.93;;;4.30;98.00;;;;;;4955757;29;20450;-69
2023/11/26 00:42:37;;;;;;;2.50;1.90;;;4.30;98.00;;;;;;4956941;28;20486;-69
2023/11/26 00:45:05;;;;;;;2.93;1.90;;;4.30;98.00;;;;;;4956936;28;20469;-69
2023/11/26 00:47:32;;;;;;;2.80;2.03;;;4.40;98.00;;;;;;4955845;29;20540;-69
2023/11/26 00:50:03;;;;;;;7.33;2.20;;;4.20;98.00;;;;;;4956878;28;20455;-69
2023/11/26 00:52:32;;;;;;;4.33;2.23;;;4.20;98.00;;;;;;4955811;29;20945;-68
2023/11/26 00:54:59;;;;;;;2.70;2.10;;;4.20;98.00;;;;;;4955333;29;20545;-69
2023/11/26 00:57:26;;;;;;;3.00;1.90;;;4.10;98.00;;;;;;4956653;28;20490;-68
2023/11/26 00:59:54;;;;;;;6.13;2.00;;;4.00;98.00;;;;;;4956720;28;20473;-69
2023/11/26 01:02:23;;;;;;;2.87;2.00;;;3.90;98.00;;;;;;4956155;28;20449;-69
2023/11/26 01:04:50;;;;;;;3.23;1.93;;;3.80;98.00;;;;;;4956405;28;20940;-69
2023/11/26 01:07:17;;;;;;;4.33;2.20;;;3.70;98.00;;;;;;4956302;28;20498;-69
2023/11/26 01:09:44;;;;;;;5.17;2.27;;;3.60;98.00;;;;;;4956263;28;20545;-69
2023/11/26 01:12:11;;;;;;;3.50;2.47;;;3.70;98.00;;;;;;4955836;28;20965;-68
2023/11/26 01:14:38;;;;;;;4.33;2.40;;;3.60;98.00;;;;;;4955847;28;20992;-69
2023/11/26 01:17:07;;;;;;;4.10;2.30;;;3.60;98.00;;;;;;4955599;28;20817;-69
2023/11/26 01:19:34;;;;;;;5.73;2.27;;;3.70;98.00;;;;;;4956143;28;20466;-68
2023/11/26 01:22:01;;;;;;;7.10;4.10;;;3.60;98.00;;;;;;4956021;28;20462;-69
2023/11/26 01:24:28;;;;;;;4.23;2.57;;;3.80;98.00;;;;;;4955753;28;20486;-69
2023/11/26 01:26:58;;;;;;;4.43;2.63;;;3.80;98.00;;;;;;4954446;28;20454;-68
2023/11/26 01:29:25;;;;;;;4.23;2.33;;;3.70;98.00;;;;;;4954016;29;20579;-69
2023/11/26 01:31:54;;;;;;;4.40;2.37;;;3.70;98.00;;;;;;4955793;28;20695;-69
2023/11/26 01:34:23;;;;;;;4.57;2.80;;;3.60;98.00;;;;;;4955721;28;20455;-69
2023/11/26 01:36:50;;;;;;;4.27;2.40;;;3.60;98.00;;;;;;4955618;28;20875;-69
2023/11/26 01:39:17;;;;;;;5.50;3.07;;;3.70;98.00;;;;;;4955753;28;20513;-69
2023/11/26 01:41:44;;;;;;;4.30;2.77;;;3.80;98.00;;;;;;4955641;28;20478;-69
2023/11/26 01:44:11;;;;;;;4.50;2.80;;;3.90;98.00;;;;;;4955688;28;20494;-68
2023/11/26 01:46:38;;;;;;;9.03;3.10;;;4.00;98.00;;;;;;4955612;28;20482;-68
2023/11/26 01:49:07;;;;;;;7.97;3.50;;;4.10;98.00;;;;;;4955497;28;20468;-68
2023/11/26 01:51:36;;;;;;;4.87;2.87;;;4.10;98.00;;;;;;4955590;28;20958;-69
2023/11/26 01:54:04;;;;;;;6.43;2.97;;;4.00;98.00;;;;;;4955489;28;20455;-68
2023/11/26 01:56:32;;;;;;;7.13;3.03;;;3.90;98.00;;;;;;4955377;28;20467;-68
2023/11/26 01:58:59;;;;;;;6.80;3.13;;;3.90;98.00;;;;;;4955459;28;20505;-69
2023/11/26 02:01:26;;;;;;;4.87;2.80;;;4.00;98.00;;;;;;4955144;28;20459;-68
2023/11/26 02:03:54;;;;;;;5.73;2.67;;;4.00;98.00;;;;;;4955405;28;20496;-68
2023/11/26 02:06:21;;;;;;;6.37;3.20;;;4.00;98.00;;;;;;4955228;28;20501;-68
2023/11/26 02:08:50;;;;;;;6.70;3.10;;;4.00;98.00;;;;;;4954109;29;20465;-68
2023/11/26 02:11:17;;;;;;;5.80;3.10;;;3.90;98.00;;;;;;4955082;28;20452;-68
2023/11/26 02:13:45;;;;;;;6.50;3.50;;;3.80;98.00;;;;;;4954857;28;20464;-69
2023/11/26 02:16:13;;;;;;;12.10;4.13;;;3.80;98.00;;;;;;4954563;28;20518;-69
2023/11/26 02:18:41;;;;;;;5.23;3.40;;;3.80;98.00;;;;;;4954635;28;20463;-69
2023/11/26 02:21:08;;;;;;;8.07;3.67;;;3.80;98.00;;;;;;4955021;28;20840;-69
2023/11/26 02:23:36;;;;;;;5.43;3.30;;;3.90;98.00;;;;;;4955091;28;20526;-69
2023/11/26 02:26:09;;;;;;;10.30;3.87;;;3.90;98.00;;;;;;4954978;28;20490;-68
2023/11/26 02:28:37;;;;;;;6.40;3.37;;;3.90;98.00;;;;;;4954972;28;20490;-69
2023/11/26 02:31:05;;;;;;;6.40;3.23;;;3.90;98.00;;;;;;4954799;28;20476;-69
2023/11/26 02:33:33;;;;;;;8.30;3.83;;;3.90;98.00;;;;;;4953768;29;20460;-69
2023/11/26 02:36:09;;;;;;;8.93;3.53;;;4.10;98.00;;;;;;4954744;28;20454;-69
2023/11/26 02:38:36;;;;;;;8.13;3.10;;;4.10;98.00;;;;;;4954592;28;20480;-68
2023/11/26 02:41:05;;;;;;;14.93;3.40;;;4.20;98.00;;;;;;4954890;28;20952;-68
2023/11/26 02:43:32;;;;;;;7.10;3.30;;;4.20;98.00;;;;;;4954829;28;20491;-69
2023/11/26 02:45:59;;;;;;;7.27;3.00;;;4.30;98.00;;;;;;4954411;28;20452;-68
2023/11/26 02:48:26;;;;;;;6.90;3.00;;;4.30;98.00;;;;;;4953645;29;20830;-69
2023/11/26 02:50:53;;;;;;;5.87;3.17;;;4.20;98.00;;;;;;4953370;29;20526;-69
2023/11/26 02:53:20;;;;;;;6.10;3.17;;;4.00;98.00;;;;;;4954333;28;20468;-68
2023/11/26 02:55:48;;;;;;;6.77;3.40;;;3.90;98.00;;;;;;4954317;28;20466;-69
2023/11/26 02:58:16;;;;;;;5.87;3.20;;;3.90;98.00;;;;;;4954319;28;20455;-69
2023/11/26 03:00:43;;;;;;;6.07;3.60;;;4.00;98.00;;;;;;4954284;28;20458;-68
2023/11/26 03:03:12;;;;;;;5.97;3.10;;;4.00;98.00;;;;;;4954039;28;20997;-69
2023/11/26 03:05:40;;;;;;;5.37;2.93;;;4.00;98.00;;;;;;4953780;28;20464;-69
2023/11/26 03:08:21;;;;;;;12.13;3.97;;;4.10;98.00;;;;;;4953946;28;20947;-69
2023/11/26 03:13:34;;;;;;;6.87;3.40;;;4.20;98.00;;;;;;4954066;29;20937;-69
2023/11/26 03:16:03;;;;;;;9.57;3.73;;;4.10;98.00;;;;;;4953368;28;20559;-69
2023/11/26 03:18:32;;;;;;;7.03;3.40;;;4.20;98.00;;;;;;4954165;28;20459;-69
2023/11/26 03:20:59;;;;;;;7.07;3.30;;;4.20;98.00;;;;;;4953794;28;20462;-69
2023/11/26 03:23:27;;;;;;;7.07;3.60;;;4.10;98.00;;;;;;4953775;28;20485;-69
2023/11/26 03:25:54;;;;;;;8.00;3.87;;;4.10;98.00;;;;;;4953708;28;20461;-69
2023/11/26 03:28:22;;;;;;;5.67;3.53;;;4.30;98.00;;;;;;4953751;28;20455;-69
2023/11/26 03:30:52;;;;;;;5.67;3.20;;;4.40;98.00;;;;;;4952575;29;20459;-68
2023/11/26 03:33:19;;;;;;;8.27;3.70;;;4.40;98.00;;;;;;4953673;28;20456;-69
2023/11/26 03:35:46;;;;;;;7.23;3.30;;;4.40;98.00;;;;;;4953828;28;20461;-69
2023/11/26 03:38:14;;;;;;;9.20;3.87;;;4.30;98.00;;;;;;4953336;28;20871;-68
2023/11/26 03:40:41;;;;;;;5.63;3.53;;;4.30;98.00;;;;;;4953793;28;20941;-69
2023/11/26 03:43:08;;;;;;;7.20;3.57;;;4.20;98.00;;;;;;4953587;28;20467;-69
2023/11/26 03:45:36;;;;;;;6.00;3.23;;;4.20;98.00;;;;;;4953654;28;20459;-69
2023/11/26 03:48:05;;;;;;;7.13;3.53;;;4.10;98.00;;;;;;4952490;29;20459;-69
2023/11/26 03:50:32;;;;;;;7.40;3.83;;;4.00;98.00;;;;;;4953988;28;20813;-68
2023/11/26 03:53:00;;;;;;;8.67;3.87;;;3.90;98.00;;;;;;4957669;28;20505;-69
2023/11/26 03:55:28;;;;;;;8.07;3.80;;;3.90;98.00;;;;;;4957756;28;20515;-69
2023/11/26 03:57:55;;;;;;;7.83;3.63;;;3.80;98.00;;;;;;4956384;29;20451;-69
2023/11/26 04:00:22;;;;;;;8.37;3.37;;;3.80;98.00;;;;;;4957557;28;20497;-69
2023/11/26 04:02:49;;;;;;;7.67;3.40;;;3.70;98.00;;;;;;4957470;28;20463;-69
2023/11/26 04:05:18;;;;;;;5.33;3.40;;;3.70;98.00;;;;;;4957279;28;20503;-68
2023/11/26 04:07:46;;;;;;;10.07;3.73;;;3.80;98.00;;;;;;4957356;28;20464;-68
2023/11/26 04:10:13;;;;;;;7.77;3.97;;;3.80;98.00;;;;;;4956392;29;20463;-69
2023/11/26 04:12:41;;;;;;;6.67;3.53;;;3.90;98.00;;;;;;4956258;29;20500;-69
2023/11/26 04:15:11;;;;;;;8.77;3.50;;;4.10;98.00;;;;;;4957373;28;20452;-69
2023/11/26 04:17:38;;;;;;;12.97;3.80;;;4.00;98.00;;;;;;4957432;28;20475;-68
2023/11/26 04:20:08;;;;;;;8.10;3.50;;;3.90;98.00;;;;;;4957370;28;20464;-69
2023/11/26 04:22:36;;;;;;;7.60;3.73;;;3.80;98.00;;;;;;4957438;28;20513;-69
2023/11/26 04:25:05;;;;;;;6.10;3.37;;;3.80;98.00;;;;;;4957127;28;20498;-69
2023/11/26 04:27:32;;;;;;;9.30;3.40;;;3.80;98.00;;;;;;4956036;29;20535;-69
2023/11/26 04:30:02;;;;;;;8.03;3.90;;;3.80;98.00;;;;;;4957094;28;20530;-69
2023/11/26 04:32:29;;;;;;;5.20;2.80;;;3.90;98.00;;;;;;4957525;28;20479;-68
2023/11/26 04:34:56;;;;;;;8.90;3.73;;;3.90;98.00;;;;;;4957129;28;20464;-69
2023/11/26 04:37:23;;;;;;;8.70;3.90;;;3.80;98.00;;;;;;4956908;28;20467;-68
2023/11/26 04:39:51;;;;;;;6.90;3.83;;;3.60;98.00;;;;;;4957052;28;20464;-69
2023/11/26 04:42:18;;;;;;;7.63;3.40;;;3.60;98.00;;;;;;4956561;28;20455;-69
2023/11/26 04:44:45;;;;;;;13.80;3.30;;;3.40;98.00;;;;;;4955304;29;20489;-69
2023/11/26 04:47:13;;;;;;;10.20;3.10;;;3.40;98.00;;;;;;4971449;28;20482;-67
2023/11/26 04:49:40;;;;;;;7.13;3.50;;;3.40;98.00;;;;;;4956829;28;20873;-67
2023/11/26 04:52:08;;;;;;;5.17;2.97;;;3.40;98.00;;;;;;4956410;28;20454;-67
2023/11/26 04:54:38;;;;;;;14.33;2.80;;;3.30;98.00;;;;;;4956432;28;20476;-67
2023/11/26 04:57:06;;;;;;;8.03;3.23;;;3.30;98.00;;;;;;4956161;28;20969;-67
2023/11/26 04:59:33;;;;;;;6.50;3.10;;;3.40;98.00;;;;;;4956498;28;20462;-67
2023/11/26 05:02:05;;;;;;;4.30;2.60;;;3.50;98.00;;;;;;4955149;28;20907;-67
2023/11/26 05:04:32;;;;;;;5.63;2.70;;;3.50;98.00;;;;;;4955206;29;20513;-67
2023/11/26 05:07:00;;;;;;;6.40;3.00;;;3.60;98.00;;;;;;4956076;28;21222;-66
2023/11/26 05:09:27;;;;;;;5.50;2.63;;;3.60;98.00;;;;;;4956291;28;20459;-66
2023/11/26 05:11:54;;;;;;;4.80;2.70;;;3.60;98.00;;;;;;4956343;28;20494;-66
2023/11/26 05:14:22;;;;;;;5.63;2.73;;;3.70;98.00;;;;;;4955072;29;20466;-67
2023/11/26 05:16:49;;;;;;;4.73;2.80;;;3.60;98.00;;;;;;4955958;28;20472;-67
2023/11/26 05:19:16;;;;;;;5.53;3.43;;;3.60;98.00;;;;;;4955898;28;20460;-67
2023/11/26 05:21:44;;;;;;;5.90;2.87;;;3.60;98.00;;;;;;4956251;28;20456;-67
2023/11/26 05:24:12;;;;;;;4.93;2.53;;;3.60;98.00;;;;;;4954921;29;20491;-67
2023/11/26 05:26:39;;;;;;;6.70;2.53;;;3.60;98.00;;;;;;4955922;28;20455;-67
2023/11/26 05:29:08;;;;;;;4.00;2.43;;;3.60;98.00;;;;;;4954006;29;20458;-67
2023/11/26 05:31:40;;;;;;;5.50;2.40;;;3.50;98.00;;;;;;4956087;28;20448;-67
2023/11/26 05:34:07;;;;;;;5.73;2.97;;;3.40;98.00;;;;;;4955834;28;20546;-66
2023/11/26 05:36:34;;;;;;;7.50;2.23;;;3.40;98.00;;;;;;4955762;28;20547;-67
2023/11/26 05:39:01;;;;;;;2.30;1.77;;;3.50;98.00;;;;;;4955748;28;20971;-67
2023/11/26 05:41:29;;;;;;;7.37;2.50;;;3.30;98.00;;;;;;4955627;28;20468;-66
2023/11/26 05:43:57;;;;;;;6.27;2.07;;;3.40;98.00;;;;;;4955543;28;20551;-67
2023/11/26 05:46:24;;;;;;;3.83;2.20;;;3.30;98.00;;;;;;4954138;29;20482;-67
2023/11/26 05:48:55;;;;;;;4.03;2.20;;;3.40;98.00;;;;;;4955363;28;20491;-67
2023/11/26 05:51:24;;;;;;;2.90;1.90;;;3.40;98.00;;;;;;4955405;28;20529;-67
2023/11/26 05:53:51;;;;;;;4.43;2.13;;;3.50;98.00;;;;;;4955269;28;20454;-67
2023/11/26 05:56:18;;;;;;;3.00;1.90;;;3.60;98.00;;;;;;4954768;28;20472;-67
2023/11/26 05:58:46;;;;;;;3.13;2.00;;;3.60;98.00;;;;;;4955004;28;20455;-67
2023/11/26 06:01:13;;;;;;;2.77;2.03;;;3.50;98.00;;;;;;4955214;28;20459;-67
2023/11/26 06:03:40;;;;;;;3.10;2.07;;;3.60;98.00;;;;;;4955198;28;20462;-67
2023/11/26 06:06:10;;;;;;;5.07;1.97;;;3.40;98.00;;;;;;4954953;28;20500;-67
2023/11/26 06:08:37;;;;;;;3.23;1.90;;;3.40;98.00;;;;;;4955227;28;20463;-67
2023/11/26 06:11:04;;;;;;;4.20;2.20;;;3.40;98.00;;;;;;4955079;28;20463;-66
2023/11/26 06:13:31;;;;;;;2.67;2.00;;;3.30;98.00;;;;;;4969590;28;20458;-67
2023/11/26 06:15:58;;;;;;;3.50;1.83;;;3.30;98.00;;;;;;4955082;28;20811;-67
2023/11/26 06:18:25;;;;;;;2.43;1.80;;;3.40;98.00;;;;;;4955049;28;20454;-66
2023/11/26 06:20:54;;;;;;;2.80;1.80;;;3.40;98.00;;;;;;4955282;28;20972;-67
2023/11/26 06:23:23;;;;;;;8.40;2.30;;;3.40;98.00;;;;;;4953679;29;21011;-67
2023/11/26 06:25:52;;;;;;;8.50;1.83;;;3.50;98.00;;;;;;4954572;28;20522;-67
2023/11/26 06:28:19;;;;;;;4.47;2.20;;;3.50;98.00;;;;;;4953699;28;20971;-67
2023/11/26 06:30:46;;;;;;;2.13;1.47;;;3.60;98.00;;;;;;4954768;28;20460;-67
2023/11/26 06:33:13;;;;;;;6.73;1.80;;;3.60;98.00;;;;;;4953160;29;20462;-67
2023/11/26 06:35:40;;;;;;;3.70;2.00;;;3.70;98.00;;;;;;4954607;28;20464;-67
2023/11/26 06:38:07;;;;;;;5.60;1.63;;;3.70;98.00;;;;;;4954451;28;20461;-67
2023/11/26 06:40:37;;;;;;;2.17;1.80;;;3.60;98.00;;;;;;4937348;29;20993;-67
2023/11/26 06:43:04;;;;;;;4.03;1.97;;;3.50;98.00;;;;;;4954275;28;20553;-67
2023/11/26 06:45:31;;;;;;;4.70;1.80;;;3.50;98.00;;;;;;4954318;28;20494;-68
2023/11/26 06:48:01;;;;;;;3.60;1.80;;;3.50;98.00;;;;;;4954271;28;20514;-68
2023/11/26 06:50:28;;;;;;;3.90;2.20;;;3.60;98.00;;;;;;4953130;29;20456;-67
2023/11/26 06:52:55;;;;;;;3.07;2.00;;;3.60;98.00;;;;;;4954251;28;20459;-68
2023/11/26 06:55:22;;;;;;;2.50;1.90;;;3.60;98.00;;;;;;4953240;29;20455;-68
2023/11/26 06:57:51;;;;;;;3.17;1.83;;;3.60;98.00;;;;;;4954265;28;20455;-68
2023/11/26 07:00:19;;;;;;;5.97;2.30;;;3.50;98.00;;;;;;4954265;28;20458;-68
2023/11/26 07:02:46;;;;;;;4.57;2.13;;;3.50;98.00;;;;;;4954284;28;21137;-68
2023/11/26 07:05:13;;;;;;;4.30;2.40;;;3.50;98.00;;;;;;4953972;28;20504;-68
2023/11/26 07:07:41;;;;;;;2.87;2.03;;;3.60;98.00;;;;;;4954266;28;20460;-68
2023/11/26 07:10:09;;;;;;;5.50;2.27;;;3.70;98.00;;;;;;4954217;28;20462;-61
2023/11/26 07:12:36;;;;;;;5.60;2.40;;;3.70;98.00;;;;;;4954139;28;20463;-61
2023/11/26 07:15:11;;;;;;;4.90;2.43;;;3.80;98.00;;;;;;4954041;28;20463;-62
2023/11/26 07:17:38;;;;;;;3.33;2.30;;;3.90;98.00;;;;;;4952667;28;20460;-61
2023/11/26 07:20:13;;;;;;;4.37;2.10;;;4.00;98.00;;;;;;4953646;28;20458;-61
2023/11/26 07:22:40;;;;;;;2.60;1.97;;;4.10;98.00;;;;;;4954022;28;20525;-62
2023/11/26 07:25:08;;;;;;;8.47;2.53;;;4.10;98.00;;;;;;4953546;28;20498;-62
2023/11/26 07:27:35;;;;;;;5.80;2.70;;;4.10;98.00;;;;;;4953863;28;20467;-61
2023/11/26 07:30:03;;;;;;;4.30;2.50;;;4.20;98.00;;;;;;4953989;28;20464;-61
2023/11/26 07:32:33;;;;;;;3.73;2.33;;;4.10;98.00;;;;;;4953872;28;20457;-61
2023/11/26 07:35:00;;;;;;;4.73;2.00;;;3.50;98.00;;;;;;4952883;29;20455;-62
2023/11/26 07:37:27;;;;;;;3.80;1.97;;;3.20;98.00;;;;;;4954007;28;20481;-61
2023/11/26 07:39:55;;;;;;;3.93;2.10;;;3.10;98.00;;;;;;4936848;29;20533;-61
2023/11/26 07:42:22;;;;;;;9.23;2.60;;;2.90;98.00;;;;;;4953754;28;20453;-62
2023/11/26 07:44:50;;;;;;;3.27;1.90;;;2.90;98.00;;;;;;4953769;28;20540;-62
2023/11/26 07:47:17;;;;;;;5.13;1.97;;;2.90;98.00;;;;;;4952754;29;20458;-62
2023/11/26 07:49:46;;;;;;;2.40;1.80;;;3.00;98.00;;;;;;4953920;28;20547;-61
2023/11/26 07:52:13;;;;;;;2.37;1.90;;;2.90;98.00;;;;;;4953851;28;20462;-62
2023/11/26 07:54:40;;;;;;;3.00;1.93;;;3.00;98.00;;;;;;4953802;28;20518;-61
2023/11/26 07:57:07;;;;;;;4.80;1.83;;;3.10;98.00;;;;;;4953688;28;20446;-62
2023/11/26 07:59:34;;;;;;;2.57;1.60;;;3.00;98.00;;;;;;4952741;29;20454;-61
2023/11/26 08:02:01;;;;;;;4.07;2.30;;;3.10;98.00;;;;;;4953844;28;20455;-61
2023/11/26 08:04:28;;;;;;;4.83;1.80;;;3.10;98.00;;;;;;4953893;28;20454;-62
2023/11/26 08:06:57;;;;;;;2.30;1.83;;;3.20;98.00;;;;;;4953959;28;20517;-62
2023/11/26 08:09:24;;;;;;;1.50;1.40;;;3.20;98.00;;;;;;4968753;28;20462;-61
2023/11/26 08:11:55;;;;;;;4.10;1.70;;;3.30;98.00;;;;;;4952451;29;20945;-62
2023/11/26 08:14:22;;;;;;;3.03;1.73;;;3.40;98.00;;;;;;4953753;28;20458;-61
2023/11/26 08:16:50;;;;;;;2.10;1.50;;;3.40;98.00;;;;;;4953650;28;20457;-61
2023/11/26 08:19:18;;;;;;;2.80;1.60;;;3.40;98.00;;;;;;4953244;28;20458;-61
2023/11/26 08:21:45;;;;;;;2.20;1.60;;;3.40;98.00;;;;;;4953241;28;20458;-61
2023/11/26 08:24:17;;;;;;;2.03;1.50;;;3.50;98.00;;;;;;4953468;28;20466;-61
2023/11/26 08:26:46;;;;;;;2.17;1.63;;;3.60;98.00;;;;;;4952334;29;20492;-61
2023/11/26 08:29:16;;;;;;;1.93;1.50;;;3.60;98.00;;;;;;4953323;28;21068;-61
2023/11/26 08:31:44;;;;;;;2.40;1.70;;;3.70;98.00;;;;;;4953193;28;20463;-62
2023/11/26 08:34:15;;;;;;;2.30;1.73;;;3.60;98.00;;;;;;4953216;28;20938;-61
2023/11/26 08:36:42;;;;;;;4.00;1.80;;;3.70;98.00;;;;;;4952667;28;20455;-62
2023/11/26 08:39:14;;;;;;;3.17;2.00;;;3.80;98.00;;;;;;4956768;28;20957;-62
2023/11/26 08:41:44;;;;;;;2.40;1.77;;;3.90;98.00;;;;;;4956875;28;20457;-61
2023/11/26 08:44:12;;;;;;;3.90;1.80;;;4.00;98.00;;;;;;4956691;28;20459;-61
2023/11/26 08:46:41;;;;;;;2.50;1.83;;;4.00;98.00;;;;;;4956718;28;20571;-62
2023/11/26 08:49:08;;;;;;;3.60;1.57;;;4.20;98.00;;;;;;4956662;28;20458;-61
2023/11/26 08:51:36;;;;;;;1.80;1.40;;;4.10;98.00;;;;;;4956601;28;20455;-62
2023/11/26 08:54:03;;;;;;;2.13;1.60;;;4.20;98.00;;;;;;4956570;28;20450;-61
2023/11/26 08:56:30;;;;;;;3.13;1.90;;;4.30;98.00;;;;;;4956454;28;20835;-61
2023/11/26 08:58:59;;;;;;;1.60;1.50;;;4.40;98.00;;;;;;4956677;28;20472;-61
2023/11/26 09:01:26;;;;;;;4.30;2.00;;;4.40;98.00;;;;;;4956443;28;20462;-62
2023/11/26 09:03:53;;;;;;;2.20;1.43;;;4.30;98.00;;;;;;4956686;28;20566;-62
2023/11/26 09:06:20;;;;;;;1.83;1.57;;;4.40;98.00;;;;;;4956078;28;20502;-62
2023/11/26 09:08:50;;;;;;;4.50;1.83;;;4.40;98.00;;;;;;4956507;28;20857;-62
2023/11/26 09:11:17;;;;;;;3.67;2.23;;;4.50;98.00;;;;;;4956385;28;20451;-62
2023/11/26 09:13:45;;;;;;;5.30;2.37;;;4.70;98.00;;;;;;4955406;29;20465;-62
2023/11/26 09:16:16;;;;;;;3.30;2.27;;;4.70;98.00;;;;;;4956331;28;20475;-61
2023/11/26 09:18:43;;;;;;;3.87;2.23;;;4.80;98.00;;;;;;4955233;29;20479;-62
2023/11/26 09:21:12;;;;;;;3.63;2.33;;;4.80;98.00;;;;;;4956365;28;20970;-62
2023/11/26 09:23:42;;;;;;;4.63;2.37;;;4.90;98.00;;;;;;4955327;29;20541;-61
2023/11/26 09:26:11;;;;;;;7.27;2.60;;;4.90;98.00;;;;;;4956219;28;20825;-62
2023/11/26 09:28:38;;;;;;;3.30;2.30;;;4.90;98.00;;;;;;4956251;28;20461;-61
2023/11/26 09:31:08;;;;;;;5.17;2.63;;;4.90;98.00;;;;;;4956155;28;20842;-62
2023/11/26 09:33:37;;;;;;;3.20;2.20;;;4.90;98.00;;;;;;4956284;28;20459;-60
2023/11/26 09:36:05;;;;;;;4.47;2.60;;;4.90;98.00;;;;;;4955979;28;20497;-60
2023/11/26 09:38:32;;;;;;;5.33;2.50;;;4.90;98.00;;;;;;4956012;28;20830;-62
2023/11/26 09:40:59;;;;;;;3.17;2.20;;;5.00;98.00;;;;;;4955895;28;20492;-61
2023/11/26 09:43:30;;;;;;;3.33;2.43;;;4.90;98.00;;;;;;4955773;28;20469;-61
2023/11/26 09:45:57;;;;;;;4.80;2.60;;;5.00;98.00;;;;;;4954847;29;20503;-61
2023/11/26 09:48:24;;;;;;;6.03;2.80;;;5.00;98.00;;;;;;4953042;28;20462;-61
2023/11/26 09:50:54;;;;;;;5.03;2.70;;;4.90;98.00;;;;;;4955387;28;20463;-61
2023/11/26 09:53:23;;;;;;;4.80;2.60;;;5.00;98.00;;;;;;4955648;28;20468;-60
2023/11/26 09:55:54;;;;;;;4.30;2.30;;;5.10;98.00;;;;;;4954024;28;20457;-62
2023/11/26 09:58:22;;;;;;;5.27;2.53;;;5.30;98.00;;;;;;4953564;28;20457;-62
2023/11/26 10:00:49;;;;;;;3.60;2.30;;;5.30;98.00;;;;;;4955239;28;20456;-61
2023/11/26 10:03:16;;;;;;;3.23;2.30;;;5.30;98.00;;;;;;4954598;28;20953;-65
2023/11/26 10:05:43;;;;;;;5.67;2.77;;;5.50;98.00;;;;;;4954345;28;21044;-61
2023/11/26 10:08:27;;;;;;;7.70;2.80;;;5.50;98.00;;;;;;4955215;28;20822;-61
2023/11/26 10:10:55;;;;;;;5.70;2.53;;;5.50;98.00;;;;;;4955230;28;20555;-60
2023/11/26 10:13:23;;;;;;;5.00;2.80;;;5.50;98.00;;;;;;4955435;28;20524;-61
2023/11/26 10:15:50;;;;;;;6.33;2.70;;;5.30;98.00;;;;;;4955387;28;21015;-61
2023/11/26 10:18:18;;;;;;;4.67;2.50;;;5.20;98.00;;;;;;4954898;28;20462;-61
2023/11/26 10:20:50;;;;;;;5.13;2.50;;;5.30;98.00;;;;;;4954984;28;20537;-61
2023/11/26 10:23:35;;;;;;;4.40;2.50;;;5.40;98.00;;;;;;4953923;29;20551;-61
2023/11/26 10:26:04;;;;;;;4.77;2.73;;;5.60;98.00;;;;;;4954937;28;20499;-63
2023/11/26 10:28:31;;;;;;;4.90;2.80;;;5.80;98.00;;;;;;4954724;28;20466;-63
2023/11/26 10:31:06;;;;;;;4.47;2.53;;;5.80;98.00;;;;;;4954670;28;20465;-62
2023/11/26 10:33:33;;;;;;;8.13;2.80;;;5.90;98.00;;;;;;4954596;28;20476;-62
2023/11/26 10:36:00;;;;;;;4.10;2.60;;;5.90;98.00;;;;;;4954516;28;20939;-62
2023/11/26 10:38:34;;;;;;;5.23;3.20;;;5.90;98.00;;;;;;4954588;28;20463;-62
2023/11/26 10:41:03;;;;;;;7.80;4.63;;;6.00;98.00;;;;;;4954716;28;20505;-62
2023/11/26 10:43:32;;;;;;;6.90;3.37;;;6.10;98.00;;;;;;4954428;28;21052;-62
2023/11/26 10:46:00;;;;;;;5.23;3.17;;;6.10;98.00;;;;;;4954444;28;20531;-62
2023/11/26 10:48:29;;;;;;;10.13;4.40;;;6.10;98.00;;;;;;5153520;23;20513;-61
2023/11/26 10:51:05;;;;;;;7.70;4.20;;;6.40;98.00;;;;;;4969056;28;20453;-62
2023/11/26 10:53:40;;;;;;;7.57;3.80;;;6.50;98.00;;;;;;5147889;23;20606;-59
2023/11/26 10:56:13;;;;;;;5.87;2.53;;;6.40;98.00;;;;;;4954643;28;20469;-61
2023/11/26 10:58:41;;;;;;;5.30;2.80;;;6.30;98.00;;;;;;4954298;28;20497;-60
2023/11/26 11:01:08;;;;;;;7.03;3.00;;;6.40;98.00;;;;;;4968875;28;20459;-60
2023/11/26 11:03:37;;;;;;;8.00;3.67;;;6.30;98.00;;;;;;4965970;28;20948;-63
2023/11/26 11:06:05;;;;;;;7.40;3.53;;;6.30;98.00;;;;;;4963342;28;20482;-63
2023/11/26 11:08:35;;;;;;;9.13;3.90;;;6.40;98.00;;;;;;4973355;28;20472;-63
2023/11/26 11:11:13;;;;;;;10.07;3.83;;;6.40;98.00;;;;;;4973261;28;20462;-63
2023/11/26 11:13:41;;;;;;;8.63;3.80;;;6.50;98.00;;;;;;4973232;28;20457;-63
2023/11/26 11:16:10;;;;;;;10.80;3.97;;;6.50;98.00;;;;;;4973343;28;20590;-63
2023/11/26 11:18:45;;;;;;;7.77;3.60;;;6.40;98.00;;;;;;4973297;28;20465;-63
2023/11/26 11:21:16;;;;;;;10.23;4.80;;;6.30;98.00;;;;;;4973250;28;20455;-63
2023/11/26 11:23:45;;;;;;;11.00;4.50;;;6.40;98.00;;;;;;4973425;28;20472;-63
2023/11/26 11:26:14;;;;;;;10.53;4.50;;;6.40;98.00;;;;;;4973262;28;20598;-63
2023/11/26 11:28:42;;;;;;;10.43;4.60;;;6.70;98.00;;;;;;4973157;28;20464;-63
2023/11/26 11:31:10;;;;;;;7.70;4.00;;;6.90;98.00;;;;;;4973183;28;20692;-63
2023/11/26 11:34:16;;;;;;;7.93;3.80;;;7.10;98.00;;;;;;4973025;28;20456;-63
2023/11/26 11:36:51;;;;;;;5.17;3.23;;;7.30;98.00;;;;;;4973274;28;20457;-63
2023/11/26 11:39:24;;;;;;;6.60;3.40;;;7.20;98.00;;;;;;4973137;28;20548;-63
2023/11/26 11:42:12;;;;;;;9.07;3.47;;;7.10;98.00;;;;;;4973228;28;20544;-60
2023/11/26 11:44:41;;;;;;;5.83;3.20;;;7.00;98.00;;;;;;4973066;28;20454;-63
2023/11/26 11:47:07;;;;;;;5.07;3.23;;;6.80;98.00;;;;;;4973204;28;20556;-63
2023/11/26 11:50:07;;;;;;;10.87;3.27;;;6.70;98.00;;;;;;4972994;28;20507;-63
2023/11/26 11:52:34;;;;;;;7.17;3.27;;;6.60;98.00;;;;;;4972840;28;20554;-63
2023/11/26 11:55:23;;;;;;;9.10;3.23;;;6.70;98.00;;;;;;4973167;28;20894;-63
2023/11/26 11:57:51;;;;;;;6.40;3.27;;;6.60;98.00;;;;;;4972751;28;20457;-63
2023/11/26 12:00:21;;;;;;;6.93;3.90;;;6.60;98.00;;;;;;4972643;28;20995;-63
2023/11/26 12:02:52;;;;;;;9.27;3.90;;;6.60;98.00;;;;;;4972751;28;21172;-63
2023/11/26 12:05:24;;;;;;;9.87;3.63;;;6.60;98.00;;;;;;4972808;28;20454;-63
2023/11/26 12:07:52;;;;;;;9.40;3.00;;;6.40;98.00;;;;;;4972520;28;20565;-63
2023/11/26 12:10:24;;;;;;;4.90;2.50;;;6.20;98.00;;;;;;4972558;28;21029;-62
2023/11/26 12:13:01;;;;;;;4.70;2.47;;;6.10;98.00;;;;;;4975112;28;20819;-63
2023/11/26 12:15:29;;;;;;;3.47;2.33;;;6.00;98.00;;;;;;4976664;28;20463;-63
2023/11/26 12:17:56;;;;;;;5.20;2.67;;;5.90;98.00;;;;;;4975217;28;20527;-62
2023/11/26 12:20:23;;;;;;;5.30;2.87;;;5.80;98.00;;;;;;4976333;28;20541;-63
2023/11/26 12:22:51;;;;;;;4.53;2.57;;;5.80;98.00;;;;;;4976259;28;20971;-63
2023/11/26 12:25:21;;;;;;;7.50;3.07;;;5.80;98.00;;;;;;4976038;28;20816;-63
2023/11/26 12:28:02;;;;;;;5.77;2.57;;;5.80;98.00;;;;;;4975551;28;20477;-63
2023/11/26 12:30:32;;;;;;;3.87;2.50;;;5.90;98.00;;;;;;4975843;28;20525;-63
2023/11/26 12:32:59;;;;;;;4.47;2.70;;;6.00;98.00;;;;;;4975937;28;20465;-63
2023/11/26 12:35:28;;;;;;;4.63;2.83;;;6.50;98.00;;;;;;4976219;28;20459;-63
2023/11/26 12:37:57;;;;;;;4.83;2.50;;;6.80;98.00;;;;;;4976110;28;20462;-63
2023/11/26 12:40:24;;;;;;;6.00;2.90;;;6.90;98.00;;;;;;4975996;28;20815;-62
2023/11/26 12:42:53;;;;;;;4.90;2.77;;;7.20;98.00;;;;;;4975898;28;20966;-63
2023/11/26 12:45:20;;;;;;;4.67;2.33;;;7.50;98.00;;;;;;4990916;28;20448;-64
2023/11/26 12:47:54;;;;;;;5.50;2.47;;;7.60;98.00;;;;;;4975797;28;20487;-63
2023/11/26 12:50:21;;;;;;;4.13;2.83;;;7.80;98.00;;;;;;4975708;28;20457;-62
2023/11/26 12:52:49;;;;;;;4.20;2.73;;;7.70;98.00;;;;;;4975781;28;20796;-63
2023/11/26 12:55:16;;;;;;;5.97;2.70;;;7.70;98.00;;;;;;4975916;28;20458;-62
2023/11/26 12:57:44;;;;;;;4.73;2.70;;;7.70;98.00;;;;;;4975818;28;20992;-63
2023/11/26 13:00:14;;;;;;;3.00;2.20;;;7.60;98.00;;;;;;4968464;28;20467;-62
2023/11/26 13:02:42;;;;;;;6.60;2.50;;;8.10;98.00;;;;;;4956474;28;20457;-62
2023/11/26 13:05:26;;;;;;;4.87;2.60;;;9.20;98.00;;;;;;4955699;28;20461;-63